Time;durP1;ratioP1;P1;durP2;ratioP2;P2;SDS_P1;SDS_P2;PMS_P1;PMS_P2;Temp;Humidity;BMP_temperature;BMP_pressure;BME280_temperature;BME280_humidity;BME280_pressure;Samples;Min_cycle;Max_cycle;Signal;HPM_P1;HPM_P2
2022/08/09 00:02:13;;;;;;;5.28;2.33;;;23.00;99.90;;;;;;5943044;24;20133;-88
2022/08/09 00:04:42;;;;;;;7.40;3.65;;;22.80;99.90;;;;;;5968215;24;20079;-84
2022/08/09 00:07:08;;;;;;;7.53;3.13;;;22.40;99.90;;;;;;5967610;24;20011;-83
2022/08/09 00:09:33;;;;;;;8.15;3.38;;;24.20;99.90;;;;;;5967717;24;19997;-81
2022/08/09 00:11:59;;;;;;;9.07;3.80;;;21.10;99.90;;;;;;5942884;24;20064;-84
2022/08/09 00:14:25;;;;;;;9.27;4.10;;;20.70;99.90;;;;;;5967709;24;20008;-80
2022/08/09 00:16:51;;;;;;;10.45;3.55;;;20.30;99.90;;;;;;5967608;24;20012;-79
2022/08/09 00:19:17;;;;;;;9.05;4.55;;;20.50;99.90;;;;;;5967805;24;20019;-86
2022/08/09 00:21:45;;;;;;;10.95;4.85;;;20.50;99.90;;;;;;5967529;24;20145;-79
2022/08/09 00:24:13;;;;;;;7.78;3.65;;;18.00;99.90;;;;;;5967325;24;20000;-76
2022/08/09 00:26:39;;;;;;;5.82;2.67;;;22.50;99.90;;;;;;5967826;24;20019;-84
2022/08/09 00:29:05;;;;;;;5.68;2.58;;;20.80;99.90;;;;;;5967446;24;20200;-88
2022/08/09 00:31:31;;;;;;;6.45;2.90;;;21.00;99.90;;;;;;5967330;24;20004;-82
2022/08/09 00:33:57;;;;;;;6.38;3.15;;;21.20;99.90;;;;;;5967632;24;20012;-83
2022/08/09 00:36:23;;;;;;;6.85;3.15;;;21.30;99.90;;;;;;5966943;23;20001;-83
2022/08/09 00:38:49;;;;;;;6.88;3.20;;;21.40;99.90;;;;;;5966516;24;20306;-83
2022/08/09 00:41:17;;;;;;;7.97;2.63;;;21.70;99.90;;;;;;5967161;24;20611;-78
2022/08/09 00:43:43;;;;;;;7.28;3.33;;;19.20;99.90;;;;;;5966690;24;20024;-84
2022/08/09 00:46:09;;;;;;;6.15;2.97;;;22.00;99.90;;;;;;5942653;24;20012;-83
2022/08/09 00:48:36;;;;;;;7.13;2.95;;;22.10;99.90;;;;;;5966780;24;20041;-85
2022/08/09 00:51:05;;;;;;;5.88;2.67;;;22.30;99.90;;;;;;5942487;24;20000;-85
2022/08/09 00:53:31;;;;;;;5.15;2.00;;;22.40;99.90;;;;;;5967216;24;20004;-80
2022/08/09 00:55:58;;;;;;;6.05;2.90;;;22.50;99.90;;;;;;5942525;24;20031;-78
2022/08/09 00:58:24;;;;;;;5.78;2.40;;;22.60;99.90;;;;;;5967156;24;20004;-79
2022/08/09 01:00:55;;;;;;;7.15;2.70;;;22.70;99.90;;;;;;5942537;24;20084;-83
2022/08/09 01:03:23;;;;;;;6.13;2.78;;;22.60;99.90;;;;;;5966921;24;20011;-84
2022/08/09 01:05:59;;;;;;;8.98;4.00;;;22.60;99.90;;;;;;5966713;24;20082;-87
2022/08/09 01:08:42;;;;;;;7.65;3.03;;;21.20;99.90;;;;;;5942779;24;20020;-79
2022/08/09 01:11:23;;;;;;;6.72;3.15;;;22.10;99.90;;;;;;5966949;24;20012;-85
2022/08/09 01:14:21;;;;;;;7.95;2.83;;;21.90;99.90;;;;;;5942175;24;20028;-79
2022/08/09 01:16:50;;;;;;;5.82;2.92;;;22.10;99.90;;;;;;5826493;24;20052;-81
2022/08/09 01:19:26;;;;;;;4.82;2.22;;;21.70;99.90;;;;;;5826545;24;20082;-86
2022/08/09 01:22:17;;;;;;;4.68;2.45;;;21.80;99.90;;;;;;5826726;24;20102;-86
2022/08/09 01:25:06;;;;;;;6.65;3.38;;;21.80;99.90;;;;;;5826901;24;20002;-84
2022/08/09 01:27:37;;;;;;;4.35;2.10;;;22.10;99.90;;;;;;5827290;24;20099;-79
2022/08/09 01:30:06;;;;;;;5.97;2.70;;;22.10;99.90;;;;;;5827874;24;20090;-80
2022/08/09 01:32:39;;;;;;;5.03;2.42;;;22.10;99.90;;;;;;5828600;24;20011;-86
2022/08/09 01:35:13;;;;;;;7.30;2.80;;;22.10;99.90;;;;;;5829624;24;20011;-84
2022/08/09 01:37:40;;;;;;;6.95;3.38;;;22.20;99.90;;;;;;5829026;24;20252;-81
2022/08/09 01:40:09;;;;;;;5.88;2.63;;;22.20;99.90;;;;;;5827863;24;20014;-84
2022/08/09 01:42:37;;;;;;;8.73;3.00;;;19.50;99.90;;;;;;5828706;24;20018;-81
2022/08/09 01:45:04;;;;;;;5.07;2.63;;;22.20;99.90;;;;;;5828002;24;20027;-78
2022/08/09 01:47:31;;;;;;;5.65;2.72;;;22.20;99.90;;;;;;5827373;24;20111;-90
2022/08/09 01:50:02;;;;;;;7.28;2.85;;;22.30;99.90;;;;;;5827264;24;20596;-76
2022/08/09 01:52:29;;;;;;;6.53;2.95;;;22.40;99.90;;;;;;5899242;24;20008;-83
2022/08/09 01:54:57;;;;;;;5.65;2.60;;;22.50;99.90;;;;;;5966583;23;20005;-85
2022/08/09 01:57:36;;;;;;;6.43;2.95;;;22.60;99.90;;;;;;5966138;24;20620;-76
2022/08/09 02:00:05;;;;;;;6.50;2.90;;;22.50;99.90;;;;;;5966398;24;20140;-79
2022/08/09 02:02:34;;;;;;;6.22;2.55;;;22.40;99.90;;;;;;5967548;24;20012;-77
2022/08/09 02:05:04;;;;;;;6.65;2.55;;;22.30;99.90;;;;;;5941371;24;20015;-83
2022/08/09 02:07:33;;;;;;;5.72;2.47;;;22.20;99.90;;;;;;5966162;24;20012;-81
2022/08/09 02:10:04;;;;;;;6.85;3.05;;;22.70;99.90;;;;;;5966380;24;20816;-77
2022/08/09 02:12:32;;;;;;;5.47;2.65;;;22.20;99.90;;;;;;5966146;24;20015;-76
2022/08/09 02:15:01;;;;;;;6.53;3.08;;;22.10;99.90;;;;;;5941357;24;20095;-77
2022/08/09 02:17:30;;;;;;;5.78;2.70;;;21.90;99.90;;;;;;5966726;24;20007;-76
2022/08/09 02:19:56;;;;;;;5.82;2.65;;;21.90;99.90;;;;;;5967980;24;20632;-77
2022/08/09 02:22:30;;;;;;;6.50;2.90;;;21.90;99.90;;;;;;5968018;24;20020;-79
2022/08/09 02:24:59;;;;;;;6.38;2.83;;;22.00;99.90;;;;;;5967986;24;20008;-87
2022/08/09 02:27:29;;;;;;;4.88;2.33;;;22.00;99.90;;;;;;5943564;24;20651;-76
2022/08/09 02:29:57;;;;;;;6.43;2.45;;;22.10;99.90;;;;;;5968015;24;20015;-81
2022/08/09 02:32:27;;;;;;;5.80;2.83;;;22.10;99.90;;;;;;5968128;24;20007;-83
2022/08/09 02:35:01;;;;;;;5.75;2.80;;;22.10;99.90;;;;;;5968435;24;20012;-83
2022/08/09 02:37:29;;;;;;;6.43;2.65;;;21.90;99.90;;;;;;5967780;23;20087;-77
2022/08/09 02:40:01;;;;;;;5.65;2.50;;;21.60;99.90;;;;;;5967972;24;20004;-80
2022/08/09 02:42:30;;;;;;;8.43;2.97;;;21.60;99.90;;;;;;5967642;24;20100;-85
2022/08/09 02:45:02;;;;;;;6.22;2.90;;;21.50;99.90;;;;;;5967518;24;20024;-83
2022/08/09 02:47:29;;;;;;;6.20;2.95;;;21.50;99.90;;;;;;5968247;24;20079;-86
2022/08/09 02:50:01;;;;;;;5.47;2.50;;;21.40;99.90;;;;;;5968029;24;20000;-86
2022/08/09 02:52:52;;;;;;;5.82;2.75;;;21.40;99.90;;;;;;5967908;24;20004;-83
2022/08/09 02:55:18;;;;;;;5.65;2.63;;;21.30;99.90;;;;;;5949723;24;20376;-76
2022/08/09 02:57:46;;;;;;;6.05;2.90;;;21.40;99.90;;;;;;5943578;24;20038;-82
2022/08/09 03:00:13;;;;;;;6.97;2.72;;;21.30;99.90;;;;;;5943822;24;20016;-77
2022/08/09 03:02:43;;;;;;;5.57;2.40;;;21.30;99.90;;;;;;5967135;24;20016;-83
2022/08/09 03:05:11;;;;;;;8.88;3.42;;;21.30;99.90;;;;;;5968690;24;20232;-80
2022/08/09 03:07:38;;;;;;;6.18;2.67;;;21.20;99.90;;;;;;5967753;24;20004;-84
2022/08/09 03:10:05;;;;;;;4.10;2.30;;;21.20;99.90;;;;;;5967468;24;20004;-81
2022/08/09 03:12:34;;;;;;;5.00;1.92;;;21.20;99.90;;;;;;5946877;24;20012;-84
2022/08/09 03:15:01;;;;;;;4.80;2.08;;;20.50;99.90;;;;;;5982458;24;20057;-79
2022/08/09 03:17:28;;;;;;;4.72;2.00;;;20.50;99.90;;;;;;5950108;24;20016;-79
2022/08/09 03:19:59;;;;;;;6.00;2.22;;;20.10;99.90;;;;;;5978367;24;20527;-86
2022/08/09 03:22:28;;;;;;;5.68;2.00;;;19.80;99.90;;;;;;5973003;24;20023;-80
2022/08/09 03:24:59;;;;;;;8.65;2.58;;;19.50;99.90;;;;;;5970648;24;20001;-81
2022/08/09 03:27:27;;;;;;;5.35;2.20;;;19.30;99.90;;;;;;5969100;23;20475;-76
2022/08/09 03:29:56;;;;;;;6.18;2.55;;;19.30;99.90;;;;;;5943381;24;20087;-88
2022/08/09 03:32:24;;;;;;;4.53;2.00;;;19.10;99.90;;;;;;5942484;24;20489;-78
2022/08/09 03:34:49;;;;;;;5.18;2.35;;;19.30;99.90;;;;;;5967788;24;20008;-81
2022/08/09 03:37:21;;;;;;;6.68;3.05;;;19.30;99.90;;;;;;5968818;23;20844;-89
2022/08/09 03:39:47;;;;;;;5.97;2.38;;;17.70;99.90;;;;;;5941520;24;20592;-84
2022/08/09 03:42:13;;;;;;;7.05;3.20;;;19.60;99.90;;;;;;5966838;24;20023;-85
2022/08/09 03:44:39;;;;;;;5.85;1.88;;;20.00;99.90;;;;;;5941720;24;20034;-86
2022/08/09 03:47:05;;;;;;;5.88;2.13;;;20.40;99.90;;;;;;5967000;24;20087;-83
2022/08/09 03:49:33;;;;;;;7.85;2.30;;;20.70;99.90;;;;;;5966802;24;20007;-78
2022/08/09 03:52:02;;;;;;;7.30;3.15;;;20.90;99.90;;;;;;5941499;24;20853;-83
2022/08/09 03:54:33;;;;;;;6.65;2.83;;;21.00;99.90;;;;;;5966329;24;20121;-87
2022/08/09 03:57:07;;;;;;;5.47;2.85;;;21.00;99.90;;;;;;5966873;24;20008;-83
2022/08/09 03:59:34;;;;;;;8.32;3.50;;;20.90;99.90;;;;;;5966695;24;20000;-86
2022/08/09 04:02:00;;;;;;;5.85;2.78;;;;;;;;;;5966931;24;20055;-86
2022/08/09 04:04:27;;;;;;;10.18;3.38;;;21.10;99.90;;;;;;5941348;24;20004;-83
2022/08/09 04:06:55;;;;;;;7.18;3.45;;;21.00;99.90;;;;;;5967338;24;20008;-84
2022/08/09 04:09:21;;;;;;;7.72;3.40;;;20.30;99.90;;;;;;5968015;24;20059;-81
2022/08/09 04:11:49;;;;;;;8.27;3.60;;;21.10;99.90;;;;;;5967249;24;20008;-80
2022/08/09 04:14:20;;;;;;;7.30;3.35;;;21.10;99.90;;;;;;5966902;24;20008;-86
2022/08/09 04:16:46;;;;;;;7.20;3.72;;;21.10;99.90;;;;;;5967059;24;20071;-79
2022/08/09 04:19:14;;;;;;;7.32;3.65;;;21.00;99.90;;;;;;5941751;24;20000;-83
2022/08/09 04:21:40;;;;;;;7.85;3.00;;;21.10;99.90;;;;;;5966913;24;20635;-78
2022/08/09 04:24:06;;;;;;;8.57;4.10;;;21.20;99.90;;;;;;5943354;24;20004;-84
2022/08/09 04:26:35;;;;;;;6.20;3.20;;;21.30;99.90;;;;;;5967275;24;20000;-85
2022/08/09 04:29:01;;;;;;;5.85;3.00;;;21.30;99.90;;;;;;5942306;24;20016;-80
2022/08/09 04:31:26;;;;;;;8.13;3.50;;;21.30;99.90;;;;;;5967059;24;19997;-84
2022/08/09 04:33:52;;;;;;;7.53;3.38;;;21.20;99.90;;;;;;5966815;24;20036;-84
2022/08/09 04:36:18;;;;;;;7.13;3.55;;;21.60;99.90;;;;;;5967292;23;20546;-79
2022/08/09 04:38:44;;;;;;;7.05;3.40;;;21.70;99.90;;;;;;5966395;24;20515;-83
2022/08/09 04:41:09;;;;;;;7.30;3.10;;;22.10;99.90;;;;;;5965230;24;20016;-84
2022/08/09 04:43:35;;;;;;;6.65;2.90;;;21.90;99.90;;;;;;5966328;24;20030;-82
2022/08/09 04:46:01;;;;;;;7.75;2.75;;;;;;;;;;5966703;24;20634;-84
2022/08/09 04:48:27;;;;;;;7.45;2.95;;;21.80;99.90;;;;;;5971572;24;20012;-84
2022/08/09 04:50:53;;;;;;;6.47;2.88;;;21.90;99.90;;;;;;5973429;24;20567;-83
2022/08/09 04:53:19;;;;;;;5.30;2.45;;;22.00;99.90;;;;;;5969955;24;20011;-80
2022/08/09 04:55:44;;;;;;;5.78;2.70;;;22.00;99.90;;;;;;5969072;24;20460;-83
2022/08/09 04:58:10;;;;;;;4.75;2.38;;;22.00;99.90;;;;;;5968450;24;20480;-83
2022/08/09 05:00:36;;;;;;;6.00;2.60;;;21.00;99.90;;;;;;5968737;24;20015;-83
2022/08/09 05:03:04;;;;;;;5.95;2.67;;;22.00;99.90;;;;;;5945728;24;20008;-83
2022/08/09 05:05:30;;;;;;;8.55;3.03;;;22.00;99.90;;;;;;5970187;24;20468;-84
2022/08/09 05:07:56;;;;;;;6.47;3.20;;;22.10;99.90;;;;;;5942936;24;20012;-86
2022/08/09 05:10:22;;;;;;;5.40;2.75;;;22.10;99.90;;;;;;5943362;24;20011;-84
2022/08/09 05:12:48;;;;;;;7.85;3.67;;;22.20;99.90;;;;;;5966743;24;20004;-81
2022/08/09 05:15:14;;;;;;;7.38;2.88;;;;;;;;;;5967210;24;20071;-80
2022/08/09 05:17:42;;;;;;;7.60;4.03;;;22.20;99.90;;;;;;5942854;24;20656;-85
2022/08/09 05:20:09;;;;;;;7.93;3.53;;;22.20;99.90;;;;;;5943203;24;20623;-83
2022/08/09 05:22:35;;;;;;;7.78;4.07;;;22.20;99.90;;;;;;5942622;24;20068;-87
2022/08/09 05:25:02;;;;;;;8.40;4.28;;;22.20;99.90;;;;;;5968433;23;20012;-81
2022/08/09 05:27:28;;;;;;;7.05;2.80;;;;;;;;;;5944272;24;20072;-91
2022/08/09 05:29:54;;;;;;;7.78;3.50;;;22.30;99.90;;;;;;5969174;24;20232;-87
2022/08/09 05:32:19;;;;;;;7.95;3.13;;;22.60;99.90;;;;;;5968933;24;20653;-83
2022/08/09 05:34:45;;;;;;;8.68;3.20;;;22.40;99.90;;;;;;5968739;24;20004;-82
2022/08/09 05:37:11;;;;;;;6.55;3.30;;;22.40;99.90;;;;;;5967347;23;20016;-89
2022/08/09 05:39:39;;;;;;;7.32;3.08;;;22.30;99.90;;;;;;5967303;24;20118;-84
2022/08/09 05:42:07;;;;;;;6.35;2.72;;;22.20;99.90;;;;;;5968127;24;20052;-88
2022/08/09 05:44:33;;;;;;;6.78;2.70;;;;;;;;;;5968227;24;20016;-88
2022/08/09 05:46:59;;;;;;;6.35;3.03;;;22.30;99.90;;;;;;5967839;24;20535;-81
2022/08/09 05:49:27;;;;;;;5.45;2.60;;;22.30;99.90;;;;;;5967503;23;20007;-85
2022/08/09 05:51:53;;;;;;;6.18;3.05;;;22.30;99.90;;;;;;5942335;24;20004;-85
2022/08/09 05:54:27;;;;;;;6.70;2.80;;;22.20;99.90;;;;;;5967625;24;20161;-84
2022/08/09 05:57:00;;;;;;;8.68;3.13;;;22.20;99.90;;;;;;5966670;24;20079;-85
2022/08/09 05:59:28;;;;;;;7.40;3.15;;;20.00;99.90;;;;;;5967249;24;20004;-81
2022/08/09 06:01:54;;;;;;;6.82;3.28;;;;;;;;;;5941712;24;20031;-86
2022/08/09 06:04:23;;;;;;;6.82;2.90;;;22.10;99.90;;;;;;5942511;24;20079;-87
2022/08/09 06:06:56;;;;;;;7.70;2.63;;;22.20;99.90;;;;;;5966426;24;20906;-86
2022/08/09 06:09:21;;;;;;;6.47;3.15;;;22.20;99.90;;;;;;5941914;24;20061;-83
2022/08/09 06:11:50;;;;;;;6.90;3.25;;;22.60;99.90;;;;;;5966031;24;20016;-85
2022/08/09 06:14:16;;;;;;;7.05;3.38;;;22.30;99.90;;;;;;5966782;24;20638;-83
2022/08/09 06:16:42;;;;;;;7.40;3.47;;;22.10;99.90;;;;;;5967611;24;20017;-84
2022/08/09 06:19:16;;;;;;;7.13;2.95;;;;;;;;;;5943458;24;20052;-87
2022/08/09 06:21:42;;;;;;;6.15;3.30;;;;;;;;;;5945748;24;20016;-87
2022/08/09 06:24:08;;;;;;;6.75;2.90;;;;;;;;;;5947370;24;20307;-83
2022/08/09 06:26:37;;;;;;;9.32;3.50;;;22.30;99.90;;;;;;5967863;24;20007;-85
2022/08/09 06:29:10;;;;;;;7.47;3.35;;;22.20;99.90;;;;;;5939747;24;20025;-85
2022/08/09 06:31:37;;;;;;;6.90;2.97;;;22.10;99.90;;;;;;5914213;24;20013;-81
2022/08/09 06:34:03;;;;;;;7.03;3.13;;;;;;;;;;5938630;24;20012;-84
2022/08/09 06:36:31;;;;;;;5.25;2.80;;;;;;;;;;5938724;24;20516;-86
2022/08/09 06:38:57;;;;;;;6.00;3.28;;;22.30;99.90;;;;;;5938975;24;20057;-87
2022/08/09 06:41:26;;;;;;;5.95;2.45;;;22.30;99.90;;;;;;5940123;24;20017;-82
2022/08/09 06:43:55;;;;;;;7.05;3.30;;;22.30;99.90;;;;;;5943280;24;20024;-88
2022/08/09 06:46:26;;;;;;;6.90;3.28;;;22.40;99.90;;;;;;5949460;24;20011;-83
2022/08/09 06:48:52;;;;;;;7.32;3.38;;;;;;;;;;5949911;24;20000;-82
2022/08/09 06:51:21;;;;;;;9.70;3.25;;;20.40;99.90;;;;;;5947214;24;20671;-84
2022/08/09 06:53:54;;;;;;;6.05;2.85;;;22.50;99.90;;;;;;5942398;24;20084;-83
2022/08/09 06:56:20;;;;;;;6.90;3.05;;;22.50;99.90;;;;;;5940344;24;20715;-88
2022/08/09 06:58:48;;;;;;;6.75;2.88;;;22.70;99.90;;;;;;5941653;24;20035;-81
2022/08/09 07:01:17;;;;;;;7.30;3.17;;;22.50;99.90;;;;;;5934960;24;20755;-87
2022/08/09 07:03:45;;;;;;;6.78;2.97;;;22.90;99.90;;;;;;5939215;24;20032;-87
2022/08/09 07:06:11;;;;;;;7.45;2.97;;;21.90;99.90;;;;;;5937388;24;20125;-82
2022/08/09 07:08:45;;;;;;;10.60;4.22;;;23.70;99.90;;;;;;5940838;24;20116;-86
2022/08/09 07:11:14;;;;;;;7.68;3.67;;;23.50;99.90;;;;;;5940771;24;20007;-87
2022/08/09 07:13:40;;;;;;;7.13;3.20;;;22.50;99.90;;;;;;5937761;24;20012;-81
2022/08/09 07:16:09;;;;;;;7.10;3.72;;;22.50;99.90;;;;;;5938808;24;20005;-88
2022/08/09 07:18:34;;;;;;;6.55;3.35;;;22.40;99.90;;;;;;5936609;24;20479;-83
2022/08/09 07:21:00;;;;;;;6.30;3.05;;;22.50;99.90;;;;;;5938254;24;20069;-88
2022/08/09 07:23:26;;;;;;;7.72;3.75;;;;;;;;;;5939107;24;20083;-85
2022/08/09 07:25:54;;;;;;;6.85;2.95;;;22.50;99.90;;;;;;5940314;24;20075;-86
2022/08/09 07:28:20;;;;;;;6.00;3.30;;;;;;;;;;5940567;24;20012;-87
2022/08/09 07:30:52;;;;;;;6.15;3.03;;;22.60;99.90;;;;;;5939704;24;20001;-81
2022/08/09 07:33:26;;;;;;;7.78;3.58;;;23.00;99.90;;;;;;5935219;24;20012;-81
2022/08/09 07:35:55;;;;;;;8.45;3.60;;;22.70;99.90;;;;;;5937064;24;20016;-82
2022/08/09 07:38:37;;;;;;;7.13;2.95;;;24.30;99.90;;;;;;5936437;24;20069;-83
2022/08/09 07:41:06;;;;;;;7.35;3.83;;;22.60;99.90;;;;;;5937959;24;20075;-84
2022/08/09 07:43:44;;;;;;;8.15;3.67;;;22.40;99.90;;;;;;5936683;24;20020;-85
2022/08/09 07:46:45;;;;;;;;;;;;;;;;;;;;;
2022/08/09 07:53:31;;;;;;;6.85;3.70;;;22.30;99.90;;;;;;5799884;24;20081;-83
2022/08/09 07:56:07;;;;;;;7.22;3.60;;;;;;;;;;5799273;24;20011;-83
2022/08/09 07:59:11;;;;;;;;;;;;;;;;;;;;;
2022/08/09 08:07:39;;;;;;;6.90;3.58;;;22.60;99.90;;;;;;5939952;24;20032;-84
2022/08/09 08:10:30;;;;;;;8.70;3.83;;;21.10;99.90;;;;;;5876975;24;20013;-84
2022/08/09 08:13:36;;;;;;;7.78;3.83;;;22.60;99.90;;;;;;5858482;24;20646;-89
2022/08/09 08:16:16;;;;;;;8.68;3.50;;;24.30;99.90;;;;;;5773898;24;20031;-81
2022/08/09 08:19:21;;;;;;;9.13;3.67;;;22.80;99.90;;;;;;5752117;24;20216;-82
2022/08/09 08:22:11;;;;;;;7.43;3.58;;;22.70;99.90;;;;;;5771891;24;20807;-82
2022/08/09 08:24:56;;;;;;;;;;;;;;;;;;;;;
2022/08/09 08:31:17;;;;;;;9.63;3.65;;;22.70;99.90;;;;;;5696665;25;20490;-83
2022/08/09 08:34:16;;;;;;;9.18;3.80;;;22.70;99.90;;;;;;5683656;25;20017;-82
2022/08/09 08:36:47;;;;;;;9.90;3.83;;;;;;;;;;5655049;25;20071;-82
2022/08/09 08:39:25;;;;;;;8.38;4.32;;;21.30;99.90;;;;;;5851092;23;20031;-81
2022/08/09 08:41:54;;;;;;;11.15;4.43;;;;;;;;;;5990429;23;20020;-84
2022/08/09 08:44:36;;;;;;;9.68;5.05;;;22.70;99.90;;;;;;5968083;23;20056;-82
2022/08/09 08:47:50;;;;;;;8.87;4.70;;;22.70;99.90;;;;;;5967354;23;20015;-83
2022/08/09 08:50:27;;;;;;;7.78;4.07;;;21.90;99.90;;;;;;5967199;23;20091;-82
2022/08/09 08:53:31;;;;;;;11.15;5.55;;;22.60;99.90;;;;;;5968296;23;20007;-82
2022/08/09 08:56:16;;;;;;;9.60;4.38;;;23.70;99.90;;;;;;5963799;23;20725;-83
2022/08/09 08:59:19;;;;;;;;;;;;;;;;;;;;;
2022/08/09 09:02:39;;;;;;;10.55;5.28;;;22.20;99.90;;;;;;5880791;24;20019;-84
2022/08/09 09:05:42;;;;;;;10.07;5.82;;;23.20;99.90;;;;;;5773374;24;20008;-86
2022/08/09 09:08:13;;;;;;;12.85;7.28;;;22.30;99.90;;;;;;5775153;24;20015;-78
2022/08/09 09:14:20;;;;;;;11.88;6.72;;;21.80;99.90;;;;;;5839064;24;20006;-82
2022/08/09 09:17:23;;;;;;;12.25;6.00;;;22.30;99.90;;;;;;5855999;24;20010;-84
2022/08/09 09:20:37;;;;;;;12.70;6.85;;;22.00;99.90;;;;;;5734545;24;20123;-81
2022/08/09 09:24:14;;;;;;;12.52;6.38;;;21.90;99.90;;;;;;5700515;24;20227;-85
2022/08/09 09:26:34;;;;;;;11.35;5.70;;;22.00;99.90;;;;;;5682786;25;20033;-83
2022/08/09 09:29:08;;;;;;;12.15;5.75;;;22.00;99.90;;;;;;5703671;24;20078;-84
2022/08/09 09:31:48;;;;;;;14.00;7.32;;;21.90;99.90;;;;;;5723749;24;20110;-82
2022/08/09 09:34:15;;;;;;;10.32;5.82;;;;;;;;;;5700486;25;20683;-77
2022/08/09 09:36:41;;;;;;;11.25;5.82;;;;;;;;;;5722303;25;20050;-78
2022/08/09 09:39:17;;;;;;;11.13;4.90;;;22.20;99.90;;;;;;5722358;25;20035;-79
2022/08/09 09:41:46;;;;;;;9.18;4.90;;;22.20;99.90;;;;;;5734790;24;20024;-78
2022/08/09 09:44:24;;;;;;;8.88;4.75;;;22.20;99.90;;;;;;5748206;24;20035;-79
2022/08/09 09:47:07;;;;;;;17.05;9.50;;;22.30;99.90;;;;;;5747896;24;20074;-83
2022/08/09 09:49:34;;;;;;;11.60;6.07;;;22.20;99.90;;;;;;5748314;24;20070;-87
2022/08/09 09:52:15;;;;;;;11.70;6.43;;;22.00;99.90;;;;;;5772965;24;20011;-78
2022/08/09 09:54:42;;;;;;;14.57;6.40;;;22.20;99.90;;;;;;5752842;24;20685;-78
2022/08/09 09:57:15;;;;;;;13.75;7.05;;;22.00;99.90;;;;;;5848435;24;20104;-85
2022/08/09 09:59:45;;;;;;;10.00;5.95;;;23.30;99.90;;;;;;5921467;24;20037;-77
2022/08/09 10:02:12;;;;;;;10.70;5.60;;;;;;;;;;5968826;23;20024;-82
2022/08/09 10:04:41;;;;;;;12.35;6.35;;;22.30;99.90;;;;;;5967454;24;20001;-78
2022/08/09 10:07:26;;;;;;;11.63;6.15;;;22.30;99.90;;;;;;5965648;24;20008;-79
2022/08/09 10:09:55;;;;;;;14.80;7.38;;;22.40;99.90;;;;;;5967507;24;20007;-79
2022/08/09 10:12:31;;;;;;;15.65;7.95;;;22.30;99.90;;;;;;5966011;24;20588;-78
2022/08/09 10:15:17;;;;;;;13.20;6.68;;;19.00;99.90;;;;;;5966421;23;20075;-80
2022/08/09 10:17:46;;;;;;;12.90;6.18;;;24.10;99.90;;;;;;5965005;24;20015;-78
2022/08/09 10:20:20;;;;;;;14.80;6.82;;;23.30;99.90;;;;;;5965216;23;20036;-84
2022/08/09 10:23:01;;;;;;;12.00;6.18;;;22.20;99.90;;;;;;5993368;23;20023;-84
2022/08/09 10:25:27;;;;;;;11.13;6.53;;;;;;;;;;5968253;24;20072;-79
2022/08/09 10:27:53;;;;;;;10.73;5.57;;;22.30;99.90;;;;;;5975183;24;20012;-87
2022/08/09 10:30:19;;;;;;;14.52;7.57;;;22.30;99.90;;;;;;5971565;24;20001;-77
2022/08/09 10:32:52;;;;;;;13.05;6.38;;;;;;;;;;5970486;24;20215;-88
2022/08/09 10:35:24;;;;;;;12.70;5.57;;;22.20;99.90;;;;;;5990544;23;20053;-81
2022/08/09 10:37:52;;;;;;;13.07;6.78;;;22.20;99.90;;;;;;5964130;24;20013;-78
2022/08/09 10:40:19;;;;;;;15.10;7.93;;;22.10;99.90;;;;;;5941702;24;20020;-86
2022/08/09 10:42:45;;;;;;;11.88;6.60;;;22.10;99.90;;;;;;5967258;24;20324;-82
2022/08/09 10:45:23;;;;;;;14.00;7.53;;;21.70;99.90;;;;;;5944801;24;20596;-80
2022/08/09 10:48:08;;;;;;;16.05;6.93;;;21.80;99.90;;;;;;5968741;23;20032;-80
2022/08/09 10:51:25;;;;;;;10.38;5.22;;;21.80;99.90;;;;;;5968294;24;20004;-78
2022/08/09 10:54:17;;;;;;;14.68;6.05;;;21.70;99.90;;;;;;5971661;24;20031;-79
2022/08/09 10:56:43;;;;;;;11.93;5.95;;;21.70;99.90;;;;;;5969427;24;20079;-78
2022/08/09 10:59:23;;;;;;;10.90;5.03;;;21.90;99.90;;;;;;5968121;24;20605;-78
2022/08/09 11:01:50;;;;;;;13.88;5.90;;;21.60;99.90;;;;;;5968458;24;20023;-78
2022/08/09 11:04:20;;;;;;;11.50;5.68;;;21.20;99.90;;;;;;5970648;24;19996;-77
2022/08/09 11:07:07;;;;;;;13.07;5.72;;;23.40;99.90;;;;;;5970690;23;20019;-76
2022/08/09 11:09:42;;;;;;;13.43;5.72;;;21.30;99.90;;;;;;5971418;24;20008;-77
2022/08/09 11:12:14;;;;;;;13.65;6.15;;;21.30;99.90;;;;;;5970315;24;20024;-78
2022/08/09 11:14:49;;;;;;;11.98;6.38;;;;;;;;;;5969710;24;20008;-80
2022/08/09 11:17:15;;;;;;;13.13;5.95;;;21.30;99.90;;;;;;5968876;24;20092;-77
2022/08/09 11:20:06;;;;;;;10.80;6.00;;;21.40;99.90;;;;;;5972583;24;20525;-77
2022/08/09 11:22:42;;;;;;;11.57;5.72;;;21.30;99.90;;;;;;5969308;24;20393;-82
2022/08/09 11:25:15;;;;;;;12.15;6.05;;;21.30;99.90;;;;;;5969976;24;20686;-77
2022/08/09 11:27:47;;;;;;;14.27;6.22;;;21.30;99.90;;;;;;5970606;24;20062;-80
2022/08/09 11:30:29;;;;;;;10.55;6.03;;;21.30;99.90;;;;;;5971199;24;20007;-77
2022/08/09 11:33:24;;;;;;;11.50;5.53;;;21.40;99.90;;;;;;5970957;24;20010;-77
2022/08/09 11:36:00;;;;;;;12.27;5.50;;;21.40;99.90;;;;;;5970717;23;20557;-77
2022/08/09 11:38:34;;;;;;;11.48;5.80;;;21.50;99.90;;;;;;5969034;23;20080;-77
2022/08/09 11:41:12;;;;;;;13.65;6.15;;;21.50;99.90;;;;;;5972421;24;20108;-85
2022/08/09 11:43:50;;;;;;;11.77;6.45;;;21.60;99.90;;;;;;5967063;24;20016;-76
2022/08/09 11:46:16;;;;;;;12.20;6.15;;;21.80;99.90;;;;;;5968636;24;20012;-77
2022/08/09 11:48:57;;;;;;;9.93;4.75;;;21.90;99.90;;;;;;5969629;24;20009;-76
2022/08/09 11:51:24;;;;;;;14.57;6.28;;;22.10;99.90;;;;;;5968637;24;20062;-77
2022/08/09 11:54:14;;;;;;;14.35;5.57;;;22.30;99.90;;;;;;5968163;24;20000;-77
2022/08/09 11:56:40;;;;;;;10.85;5.80;;;22.30;99.90;;;;;;5968194;24;20003;-76
2022/08/09 11:59:08;;;;;;;10.30;5.10;;;22.30;99.90;;;;;;5943896;24;20009;-82
2022/08/09 12:01:43;;;;;;;12.35;5.68;;;22.30;99.90;;;;;;5968529;24;20103;-77
2022/08/09 12:04:16;;;;;;;10.05;5.93;;;22.20;99.90;;;;;;5943658;24;20087;-88
2022/08/09 12:06:55;;;;;;;10.95;5.05;;;22.10;99.90;;;;;;5969661;23;20096;-78
2022/08/09 12:09:29;;;;;;;11.73;5.75;;;22.10;99.90;;;;;;5944349;24;20008;-77
2022/08/09 12:12:04;;;;;;;12.65;5.45;;;21.80;99.90;;;;;;5969597;24;20004;-76
2022/08/09 12:14:32;;;;;;;10.73;4.60;;;22.10;99.90;;;;;;5945833;24;20005;-75
2022/08/09 12:16:58;;;;;;;14.88;7.18;;;22.10;99.90;;;;;;5947847;24;20028;-75
2022/08/09 12:19:29;;;;;;;12.98;6.28;;;22.10;99.90;;;;;;5971512;24;20039;-75
2022/08/09 12:22:02;;;;;;;13.05;7.00;;;21.80;99.90;;;;;;5946719;24;20023;-76
2022/08/09 12:24:28;;;;;;;;;;;22.10;99.90;;;;;;5970710;24;20020;-76
2022/08/09 12:26:56;;;;;;;10.80;4.93;;;22.00;99.90;;;;;;5968523;24;19917;-76
2022/08/09 12:29:24;;;;;;;14.82;7.22;;;22.30;99.90;;;;;;5978636;23;20007;-76
2022/08/09 12:32:03;;;;;;;14.05;6.95;;;22.40;99.90;;;;;;5947059;24;20012;-76
2022/08/09 12:34:36;;;;;;;14.50;6.88;;;22.80;99.90;;;;;;5967259;24;20099;-75
2022/08/09 12:37:03;;;;;;;13.95;6.28;;;23.90;99.90;;;;;;5942316;24;20095;-79
2022/08/09 12:39:29;;;;;;;13.82;6.28;;;21.30;99.90;;;;;;5972377;23;20016;-74
2022/08/09 12:42:08;;;;;;;12.18;5.45;;;23.10;99.90;;;;;;5967749;24;20012;-78
2022/08/09 12:44:41;;;;;;;16.08;8.55;;;23.20;99.90;;;;;;5941227;24;20035;-75
2022/08/09 12:47:07;;;;;;;;;;;23.80;99.90;;;;;;5964570;24;20654;-75
2022/08/09 12:49:34;;;;;;;21.20;6.70;;;23.70;99.90;;;;;;5965849;24;19903;-74
2022/08/09 12:52:00;;;;;;;12.75;7.03;;;23.60;99.90;;;;;;5965869;24;20011;-77
2022/08/09 12:54:26;;;;;;;17.48;8.52;;;23.10;99.90;;;;;;5965390;24;20624;-74
2022/08/09 12:57:01;;;;;;;14.95;8.15;;;23.10;99.90;;;;;;5939696;24;20011;-78
2022/08/09 12:59:30;;;;;;;17.02;8.90;;;23.10;99.90;;;;;;5965490;24;20064;-81
2022/08/09 13:01:58;;;;;;;12.65;6.60;;;23.30;99.90;;;;;;5965345;24;20016;-76
2022/08/09 13:04:25;;;;;;;15.98;9.00;;;23.20;99.90;;;;;;5965164;24;20556;-77
2022/08/09 13:06:51;;;;;;;19.50;8.63;;;23.20;99.90;;;;;;5966379;23;20012;-75
2022/08/09 13:09:24;;;;;;;17.10;8.52;;;23.20;99.90;;;;;;5965908;24;20057;-80
2022/08/09 13:11:52;;;;;;;20.73;9.25;;;21.50;99.90;;;;;;5941319;24;20019;-75
2022/08/09 13:14:20;;;;;;;12.77;6.55;;;23.10;99.90;;;;;;5966207;24;20640;-80
2022/08/09 13:16:52;;;;;;;15.98;7.68;;;23.20;99.90;;;;;;5965631;24;20028;-78
2022/08/09 13:19:33;;;;;;;15.77;8.82;;;23.20;99.90;;;;;;5964109;24;20003;-76
2022/08/09 13:22:11;;;;;;;14.73;7.65;;;23.00;99.90;;;;;;5967872;24;20035;-76
2022/08/09 13:24:43;;;;;;;15.45;6.45;;;23.10;99.90;;;;;;5968813;24;20001;-77
2022/08/09 13:27:32;;;;;;;13.18;6.63;;;23.10;99.90;;;;;;5968389;24;20380;-76
2022/08/09 13:30:00;;;;;;;14.18;8.07;;;23.20;99.90;;;;;;5968205;23;20057;-76
2022/08/09 13:32:47;;;;;;;15.27;7.90;;;23.20;99.90;;;;;;5967281;24;19999;-83
2022/08/09 13:35:17;;;;;;;14.15;7.78;;;23.10;99.90;;;;;;5968887;24;19996;-77
2022/08/09 13:37:43;;;;;;;15.30;7.50;;;23.20;99.90;;;;;;5968326;24;20008;-76
2022/08/09 13:40:11;;;;;;;15.05;6.32;;;23.80;99.90;;;;;;5966679;24;20031;-76